createdAt,value
2018-09-25T00:00:10.507Z,0
2018-09-25T00:03:10.813Z,0
2018-09-25T00:06:10.080Z,0
2018-09-25T00:09:10.405Z,0
2018-09-25T00:12:10.689Z,0
2018-09-25T00:15:10.851Z,0
2018-09-25T00:18:10.237Z,0
2018-09-25T00:21:10.491Z,0
2018-09-25T00:24:10.583Z,0
2018-09-25T00:27:10.819Z,0
2018-09-25T00:30:10.093Z,0
2018-09-25T00:33:10.235Z,0
2018-09-25T00:36:10.551Z,0
2018-09-25T00:39:10.744Z,0
2018-09-25T00:42:11.127Z,0
2018-09-25T00:45:10.228Z,0
2018-09-25T00:48:10.516Z,0
2018-09-25T00:51:10.738Z,0
2018-09-25T00:54:10.955Z,0
2018-09-25T00:57:10.124Z,0
2018-09-25T01:00:10.333Z,0
2018-09-25T01:03:10.595Z,0
2018-09-25T01:06:10.741Z,0
2018-09-25T01:09:11.024Z,0
2018-09-25T01:12:10.363Z,0
2018-09-25T01:15:10.748Z,0
2018-09-25T01:18:10.020Z,0
2018-09-25T01:21:10.249Z,0
2018-09-25T01:24:10.457Z,0
2018-09-25T01:27:10.707Z,0
2018-09-25T01:30:10.915Z,0
2018-09-25T01:33:10.141Z,0
2018-09-25T01:36:10.426Z,0
2018-09-25T01:39:10.606Z,0
2018-09-25T01:42:10.847Z,0
2018-09-25T01:45:10.008Z,0
2018-09-25T01:48:10.188Z,0
2018-09-25T01:51:10.356Z,0
2018-09-25T01:54:10.641Z,0
2018-09-25T01:57:10.872Z,0
2018-09-25T02:00:10.120Z,0
2018-09-25T02:03:10.382Z,0
2018-09-25T02:06:10.570Z,0
2018-09-25T02:09:11.281Z,0
2018-09-25T02:12:10.637Z,0
2018-09-25T02:15:10.791Z,0
2018-09-25T02:18:10.346Z,0
2018-09-25T02:21:10.699Z,0
2018-09-25T02:24:11.189Z,0
2018-09-25T02:27:10.412Z,0
2018-09-25T02:30:10.610Z,0
2018-09-25T02:33:10.868Z,0
2018-09-25T02:36:10.351Z,0
2018-09-25T02:39:10.679Z,0
2018-09-25T02:42:10.991Z,0
2018-09-25T02:45:10.267Z,0
2018-09-25T02:48:10.577Z,0
2018-09-25T02:51:10.934Z,0
2018-09-25T02:54:10.183Z,0
2018-09-25T02:57:10.508Z,0
2018-09-25T03:00:10.765Z,0
2018-09-25T03:03:10.985Z,0
2018-09-25T03:06:10.396Z,0
2018-09-25T03:09:10.818Z,0
2018-09-25T03:12:10.144Z,0
2018-09-25T03:15:10.415Z,0
2018-09-25T03:18:10.697Z,0
2018-09-25T03:21:10.801Z,0
2018-09-25T03:24:09.981Z,0
2018-09-25T03:27:10.304Z,0
2018-09-25T03:30:10.604Z,0
2018-09-25T03:33:10.864Z,0
2018-09-25T03:36:10.348Z,0
2018-09-25T03:39:10.534Z,0
2018-09-25T03:42:10.757Z,0
2018-09-25T03:45:11.106Z,0
2018-09-25T03:48:10.356Z,0
2018-09-25T03:51:10.641Z,0
2018-09-25T03:54:10.973Z,0
2018-09-25T03:57:10.237Z,0
2018-09-25T04:00:10.436Z,0
2018-09-25T04:03:10.583Z,0
2018-09-25T04:06:11.220Z,0
2018-09-25T04:09:10.345Z,0
2018-09-25T04:12:10.869Z,0
2018-09-25T04:15:10.003Z,0
2018-09-25T04:18:10.424Z,0
2018-09-25T04:21:10.654Z,0
2018-09-25T04:24:10.926Z,0
2018-09-25T04:27:10.572Z,0
2018-09-25T04:30:10.849Z,0
2018-09-25T04:33:10.119Z,0
2018-09-25T04:36:10.388Z,0
2018-09-25T04:39:10.579Z,0
2018-09-25T04:42:10.919Z,0
2018-09-25T04:45:10.249Z,0
2018-09-25T04:48:10.683Z,1
2018-09-25T04:51:10.925Z,2
2018-09-25T04:54:10.165Z,3
2018-09-25T04:57:10.873Z,6
2018-09-25T05:00:10.846Z,12
2018-09-25T05:03:10.322Z,20
2018-09-25T05:06:10.603Z,32
2018-09-25T05:09:10.945Z,51
2018-09-25T05:12:10.356Z,77
2018-09-25T05:15:10.748Z,110
2018-09-25T05:18:10.399Z,152
2018-09-25T05:21:10.662Z,204
2018-09-25T05:24:11.030Z,268
2018-09-25T05:27:10.776Z,348
2018-09-25T05:30:10.098Z,524
2018-09-25T05:33:10.330Z,682
2018-09-25T05:36:10.821Z,1562
2018-09-25T05:39:10.212Z,868
2018-09-25T05:42:10.397Z,1031
2018-09-25T05:45:10.777Z,1211
2018-09-25T05:48:10.240Z,1415
2018-09-25T05:51:10.572Z,1640
2018-09-25T05:54:10.865Z,1891
2018-09-25T05:57:10.332Z,2178
2018-09-25T06:00:10.619Z,2512
2018-09-25T06:03:16.120Z,2862
2018-09-25T06:06:10.387Z,3030
2018-09-25T06:09:10.654Z,2766
2018-09-25T06:12:11.104Z,2507
2018-09-25T06:15:10.542Z,2441
2018-09-25T06:18:11.050Z,2524
2018-09-25T06:21:10.442Z,2558
2018-09-25T06:24:10.981Z,2741
2018-09-25T06:27:10.472Z,2815
2018-09-25T06:30:10.715Z,3160
2018-09-25T06:33:10.996Z,3143
2018-09-25T06:36:10.286Z,2934
2018-09-25T06:39:10.621Z,3582
2018-09-25T06:42:11.158Z,3338
2018-09-25T06:45:10.640Z,3112
2018-09-25T06:48:10.977Z,3382
2018-09-25T06:51:10.236Z,3232
2018-09-25T06:54:10.554Z,3278
2018-09-25T06:57:10.842Z,3358
2018-09-25T07:00:10.286Z,3506
2018-09-25T07:03:10.625Z,4226
2018-09-25T07:06:10.896Z,7577
2018-09-25T07:09:10.198Z,7908
2018-09-25T07:12:10.497Z,4896
2018-09-25T07:15:10.938Z,4471
2018-09-25T07:18:10.465Z,4258
2018-09-25T07:21:10.901Z,4222
2018-09-25T07:24:10.399Z,4512
2018-09-25T07:27:10.587Z,5184
2018-09-25T07:30:11.015Z,14328
2018-09-25T07:33:10.517Z,24125
2018-09-25T07:36:11.031Z,17667
2018-09-25T07:39:10.468Z,12428
2018-09-25T07:42:10.711Z,6495
2018-09-25T07:45:10.947Z,6683
2018-09-25T07:48:10.364Z,6504
2018-09-25T07:51:10.652Z,10337
2018-09-25T07:54:10.915Z,13845
2018-09-25T07:57:10.090Z,28998
2018-09-25T08:00:10.442Z,54612
2018-09-25T08:03:10.851Z,54612
2018-09-25T08:06:10.335Z,54612
2018-09-25T08:09:10.858Z,54612
2018-09-25T08:12:10.346Z,54612
2018-09-25T08:15:10.744Z,54612
2018-09-25T08:18:10.218Z,54612
2018-09-25T08:21:10.450Z,54612
2018-09-25T08:24:10.848Z,54612
2018-09-25T08:27:10.030Z,51656
2018-09-25T08:30:10.481Z,48269
2018-09-25T08:33:10.813Z,54251
2018-09-25T08:36:10.369Z,54612
2018-09-25T08:39:10.818Z,54612
2018-09-25T08:42:10.213Z,54612
2018-09-25T08:45:10.534Z,54612
2018-09-25T08:48:10.858Z,54612
2018-09-25T08:51:10.063Z,54612
2018-09-25T08:54:10.536Z,54612
2018-09-25T08:57:10.851Z,54612
2018-09-25T09:00:10.362Z,54612
2018-09-25T09:03:10.877Z,54612
2018-09-25T09:06:10.217Z,54612
2018-09-25T09:09:10.469Z,54612
2018-09-25T09:12:10.779Z,54612
2018-09-25T09:15:10.228Z,54612
2018-09-25T09:18:10.803Z,54612
2018-09-25T09:21:09.963Z,54612
2018-09-25T09:24:10.442Z,54612
2018-09-25T09:27:10.684Z,54612
2018-09-25T09:30:10.967Z,54612
2018-09-25T09:33:10.252Z,54612
2018-09-25T09:36:10.614Z,54612
2018-09-25T09:39:10.898Z,54612
2018-09-25T09:42:10.268Z,54612
2018-09-25T09:45:10.665Z,54612
2018-09-25T09:48:10.951Z,54612
2018-09-25T09:51:10.228Z,54612
2018-09-25T09:54:10.666Z,54612
2018-09-25T09:57:10.992Z,54612
2018-09-25T10:00:10.333Z,54612
2018-09-25T10:03:10.796Z,54612
2018-09-25T10:06:10.170Z,8742
2018-09-25T10:09:10.344Z,16911
2018-09-25T10:12:10.804Z,54612
2018-09-25T10:15:10.008Z,19040
2018-09-25T10:18:10.430Z,54612
2018-09-25T10:21:10.818Z,54612
2018-09-25T10:24:10.123Z,54612
2018-09-25T10:27:10.641Z,54612
2018-09-25T10:30:11.037Z,54612
2018-09-25T10:33:10.233Z,54612
2018-09-25T10:36:10.439Z,54612
2018-09-25T10:39:10.842Z,10371
2018-09-25T10:42:10.152Z,9997
2018-09-25T10:45:16.598Z,10498
2018-09-25T10:48:10.849Z,10333
2018-09-25T10:51:10.696Z,9493
2018-09-25T10:54:11.095Z,9535
2018-09-25T10:57:10.486Z,54612
2018-09-25T11:00:10.785Z,54612
2018-09-25T11:03:10.542Z,54612
2018-09-25T11:06:11.044Z,54612
2018-09-25T11:09:10.430Z,39164
2018-09-25T11:12:10.865Z,54612
2018-09-25T11:15:10.285Z,54612
2018-09-25T11:18:10.799Z,54612
2018-09-25T11:21:10.133Z,54612
2018-09-25T11:24:10.534Z,46988
2018-09-25T11:27:16.053Z,7775
2018-09-25T11:30:10.361Z,7336
2018-09-25T11:33:10.947Z,7549
2018-09-25T11:36:10.358Z,7548
2018-09-25T11:39:10.971Z,8164
2018-09-25T11:42:10.187Z,9313
2018-09-25T11:45:10.704Z,4102
2018-09-25T11:48:11.294Z,6252
2018-09-25T11:51:10.644Z,6043
2018-09-25T11:54:11.051Z,5971
2018-09-25T11:57:10.410Z,5965
2018-09-25T12:00:10.711Z,6039
2018-09-25T12:03:11.123Z,5975
2018-09-25T12:06:10.473Z,5765
2018-09-25T12:09:10.784Z,5557
2018-09-25T12:12:10.090Z,5502
2018-09-25T12:15:10.378Z,5448
2018-09-25T12:18:10.549Z,5354
2018-09-25T12:21:11.082Z,5406
2018-09-25T12:24:10.416Z,5361
2018-09-25T12:27:10.713Z,5240
2018-09-25T12:30:11.085Z,5160
2018-09-25T12:33:10.754Z,5202
2018-09-25T12:36:11.103Z,5192
2018-09-25T12:39:10.426Z,5374
2018-09-25T12:42:10.888Z,4972
2018-09-25T12:45:10.223Z,4956
2018-09-25T12:48:10.627Z,4981
2018-09-25T12:51:10.926Z,4975
2018-09-25T12:54:10.253Z,4960
2018-09-25T12:57:10.705Z,4791
2018-09-25T13:00:10.912Z,4665
2018-09-25T13:03:10.365Z,4703
2018-09-25T13:06:10.610Z,4866
2018-09-25T13:09:10.888Z,5082
2018-09-25T13:12:10.320Z,5047
2018-09-25T13:15:10.550Z,4802
2018-09-25T13:18:10.953Z,4974
2018-09-25T13:21:10.288Z,4629
2018-09-25T13:24:10.461Z,4485
2018-09-25T13:27:10.876Z,4531
2018-09-25T13:30:10.244Z,4322
2018-09-25T13:33:10.611Z,3977
2018-09-25T13:36:10.835Z,4328
2018-09-25T13:39:10.162Z,4548
2018-09-25T13:42:10.690Z,4560
2018-09-25T13:45:11.042Z,4576
2018-09-25T13:48:10.312Z,4466
2018-09-25T13:51:10.677Z,4408
2018-09-25T13:54:10.995Z,4208
2018-09-25T13:57:10.414Z,4053
2018-09-25T14:00:10.781Z,4002
2018-09-25T14:03:10.179Z,3818
2018-09-25T14:06:10.700Z,3745
2018-09-25T14:09:11.027Z,3761
2018-09-25T14:12:10.487Z,3667
2018-09-25T14:15:10.820Z,3567
2018-09-25T14:18:10.277Z,3560
2018-09-25T14:21:10.737Z,3552
2018-09-25T14:24:11.054Z,3487
2018-09-25T14:27:10.250Z,3512
2018-09-25T14:30:10.533Z,3432
2018-09-25T14:33:10.874Z,3382
2018-09-25T14:36:10.192Z,3542
2018-09-25T14:39:10.524Z,3771
2018-09-25T14:42:10.911Z,3680
2018-09-25T14:45:10.274Z,3643
2018-09-25T14:48:10.541Z,3485
2018-09-25T14:51:10.783Z,3411
2018-09-25T14:54:10.168Z,3282
2018-09-25T14:57:10.604Z,3170
2018-09-25T15:00:11.086Z,2984
2018-09-25T15:03:10.365Z,2833
2018-09-25T15:06:10.696Z,2828
2018-09-25T15:09:11.119Z,2741
2018-09-25T15:12:10.550Z,2714
2018-09-25T15:15:10.934Z,2706
2018-09-25T15:18:10.257Z,2811
2018-09-25T15:21:10.773Z,2698
2018-09-25T15:24:10.007Z,2768
2018-09-25T15:27:10.326Z,2573
2018-09-25T15:30:10.897Z,2443
2018-09-25T15:33:10.122Z,2470
2018-09-25T15:36:10.533Z,2281
2018-09-25T15:39:10.850Z,2045
2018-09-25T15:42:10.199Z,2290
2018-09-25T15:45:10.725Z,1869
2018-09-25T15:48:11.202Z,1932
2018-09-25T15:51:10.529Z,1799
2018-09-25T15:54:10.798Z,1819
2018-09-25T15:57:10.002Z,1892
2018-09-25T16:00:10.293Z,1787
2018-09-25T16:03:10.688Z,1758
2018-09-25T16:06:11.128Z,1653
2018-09-25T16:09:10.524Z,1730
2018-09-25T16:12:11.018Z,1678
2018-09-25T16:15:10.327Z,1573
2018-09-25T16:18:10.686Z,1536
2018-09-25T16:21:11.022Z,1402
2018-09-25T16:24:10.284Z,1366
2018-09-25T16:27:10.485Z,1259
2018-09-25T16:30:11.141Z,1177
2018-09-25T16:33:10.490Z,1071
2018-09-25T16:36:10.931Z,988
2018-09-25T16:39:10.341Z,902
2018-09-25T16:42:10.756Z,844
2018-09-25T16:45:11.004Z,792
2018-09-25T16:48:10.309Z,742
2018-09-25T16:51:10.556Z,688
2018-09-25T16:54:10.898Z,638
2018-09-25T16:57:10.361Z,576
2018-09-25T17:00:10.543Z,503
2018-09-25T17:03:10.857Z,425
2018-09-25T17:06:10.361Z,350
2018-09-25T17:09:10.602Z,283
2018-09-25T17:12:10.955Z,228
2018-09-25T17:15:10.456Z,186
2018-09-25T17:18:10.799Z,155
2018-09-25T17:21:10.202Z,126
2018-09-25T17:24:10.708Z,98
2018-09-25T17:27:10.952Z,76
2018-09-25T17:30:10.510Z,56
2018-09-25T17:33:10.996Z,36
2018-09-25T17:36:10.353Z,21
2018-09-25T17:39:10.695Z,12
2018-09-25T17:42:11.068Z,6
2018-09-25T17:45:10.336Z,3
2018-09-25T17:48:10.916Z,2
2018-09-25T17:51:10.199Z,1
2018-09-25T17:54:10.545Z,1
2018-09-25T17:57:11.052Z,0
2018-09-25T18:00:10.282Z,0
2018-09-25T18:03:10.648Z,0
2018-09-25T18:06:11.086Z,0
2018-09-25T18:09:10.353Z,0
2018-09-25T18:12:10.648Z,0
2018-09-25T18:15:10.898Z,0
2018-09-25T18:18:10.432Z,0
2018-09-25T18:21:10.685Z,0
2018-09-25T18:24:11.005Z,0
2018-09-25T18:27:10.325Z,0
2018-09-25T18:30:10.596Z,0
2018-09-25T18:33:10.913Z,0
2018-09-25T18:36:10.186Z,0
2018-09-25T18:39:10.528Z,0
2018-09-25T18:42:10.818Z,0
2018-09-25T18:45:10.078Z,0
2018-09-25T18:48:10.529Z,0
2018-09-25T18:51:10.804Z,0
2018-09-25T18:54:10.130Z,0
2018-09-25T18:57:10.488Z,0
2018-09-25T19:00:10.792Z,0
2018-09-25T19:03:10.090Z,0
2018-09-25T19:06:10.424Z,0
2018-09-25T19:09:10.660Z,0
2018-09-25T19:12:10.917Z,0
2018-09-25T19:15:10.221Z,0
2018-09-25T19:18:10.665Z,0
2018-09-25T19:21:10.819Z,0
2018-09-25T19:24:10.099Z,0
2018-09-25T19:27:10.425Z,0
2018-09-25T19:30:10.825Z,0
2018-09-25T19:33:10.335Z,0
2018-09-25T19:36:10.689Z,0
2018-09-25T19:39:11.048Z,0
2018-09-25T19:42:10.604Z,0
2018-09-25T19:45:10.847Z,0
2018-09-25T19:48:10.166Z,0
2018-09-25T19:51:10.528Z,0
2018-09-25T19:54:10.830Z,0
2018-09-25T19:57:10.150Z,0
2018-09-25T20:00:10.574Z,0
2018-09-25T20:03:10.899Z,0
2018-09-25T20:06:10.258Z,0
2018-09-25T20:09:10.592Z,0
2018-09-25T20:12:11.039Z,0
2018-09-25T20:15:10.506Z,0
2018-09-25T20:18:10.927Z,0
2018-09-25T20:21:10.362Z,0
2018-09-25T20:24:10.582Z,0
2018-09-25T20:27:10.876Z,0
2018-09-25T20:30:10.207Z,0
2018-09-25T20:33:10.517Z,0
2018-09-25T20:36:10.893Z,0
2018-09-25T20:39:10.312Z,0
2018-09-25T20:42:10.770Z,0
2018-09-25T20:45:10.099Z,0
2018-09-25T20:48:10.291Z,0
2018-09-25T20:51:10.446Z,0
2018-09-25T20:54:10.805Z,0
2018-09-25T20:57:10.187Z,0
2018-09-25T21:00:10.571Z,0
2018-09-25T21:03:10.970Z,0
2018-09-25T21:06:10.335Z,0
2018-09-25T21:09:10.712Z,0
2018-09-25T21:12:11.022Z,0
2018-09-25T21:15:10.401Z,0
2018-09-25T21:18:10.738Z,0
2018-09-25T21:21:11.103Z,0
2018-09-25T21:24:10.399Z,0
2018-09-25T21:27:10.855Z,0
2018-09-25T21:30:10.278Z,0
2018-09-25T21:33:10.741Z,0
2018-09-25T21:36:11.221Z,0
2018-09-25T21:39:15.561Z,0
2018-09-25T21:42:10.883Z,0
2018-09-25T21:45:10.467Z,0
2018-09-25T21:48:10.821Z,0
2018-09-25T21:51:10.543Z,0
2018-09-25T21:54:11.140Z,0
2018-09-25T21:57:11.055Z,0
2018-09-25T22:00:10.445Z,0
2018-09-25T22:03:10.641Z,0
2018-09-25T22:06:11.104Z,0
2018-09-25T22:09:10.566Z,0
2018-09-25T22:12:11.033Z,0
2018-09-25T22:15:10.589Z,0
2018-09-25T22:18:11.014Z,0
2018-09-25T22:21:10.282Z,0
2018-09-25T22:24:10.604Z,0
2018-09-25T22:27:10.855Z,0
2018-09-25T22:30:10.049Z,0
2018-09-25T22:33:10.253Z,0
2018-09-25T22:36:10.708Z,0
2018-09-25T22:39:11.184Z,0
2018-09-25T22:42:10.561Z,0
2018-09-25T22:45:10.799Z,0
2018-09-25T22:48:10.059Z,0
2018-09-25T22:51:10.188Z,0
2018-09-25T22:54:10.429Z,0
2018-09-25T22:57:10.781Z,0
2018-09-25T23:00:10.292Z,0
2018-09-25T23:03:10.497Z,0
2018-09-25T23:06:10.697Z,0
2018-09-25T23:09:11.016Z,0
2018-09-25T23:12:10.352Z,0
2018-09-25T23:15:10.581Z,0
2018-09-25T23:18:11.014Z,0
2018-09-25T23:21:10.187Z,0
2018-09-25T23:24:10.394Z,0
2018-09-25T23:27:10.578Z,0
2018-09-25T23:30:10.907Z,0
2018-09-25T23:33:10.058Z,0
2018-09-25T23:36:10.264Z,0
2018-09-25T23:39:10.620Z,0
2018-09-25T23:42:11.020Z,0
2018-09-25T23:45:10.230Z,0
2018-09-25T23:48:10.474Z,0
2018-09-25T23:51:10.695Z,0
2018-09-25T23:54:10.864Z,0
2018-09-25T23:57:10.225Z,0
